sensor_id;sensor_type;location;lat;lon;timestamp;pressure;altitude;pressure_sealevel;temperature;humidity
42003;BME280;27693;50.506;30.832;2023-01-15T00:00:12;100399.66;;;-0.57;99.99
42003;BME280;27693;50.506;30.832;2023-01-15T00:01:23;100400.45;;;-0.62;99.87
42003;BME280;27693;50.506;30.832;2023-01-15T00:02:29;100390.28;;;-0.58;100.00
42003;BME280;27693;50.506;30.832;2023-01-15T00:03:32;100391.23;;;-0.46;100.00
42003;BME280;27693;50.506;30.832;2023-01-15T00:04:35;100394.72;;;-0.40;100.00
42003;BME280;27693;50.506;30.832;2023-01-15T00:05:38;100399.89;;;-0.35;100.00
42003;BME280;27693;50.506;30.832;2023-01-15T00:06:41;100390.44;;;-0.42;100.00
42003;BME280;27693;50.506;30.832;2023-01-15T00:07:44;100397.28;;;-0.40;100.00
42003;BME280;27693;50.506;30.832;2023-01-15T00:08:46;100391.44;;;-0.28;100.00
42003;BME280;27693;50.506;30.832;2023-01-15T00:09:50;100392.33;;;-0.23;100.00
42003;BME280;27693;50.506;30.832;2023-01-15T05:58:00;100306.82;;;-1.34;99.23
42003;BME280;27693;50.506;30.832;2023-01-15T05:59:02;100311.98;;;-1.30;99.08
42003;BME280;27693;50.506;30.832;2023-01-15T06:00:06;100300.11;;;-1.27;99.08
42003;BME280;27693;50.506;30.832;2023-01-15T06:01:11;100301.85;;;-1.22;99.06
42003;BME280;27693;50.506;30.832;2023-01-15T06:02:13;100301.91;;;-1.19;98.79
42003;BME280;27693;50.506;30.832;2023-01-15T06:03:15;100301.92;;;-1.16;98.66
42003;BME280;27693;50.506;30.832;2023-01-15T06:04:18;100301.97;;;-1.13;98.22
42003;BME280;27693;50.506;30.832;2023-01-15T06:05:22;100309.64;;;-1.11;98.05
42003;BME280;27693;50.506;30.832;2023-01-15T06:06:25;100302.88;;;-1.07;97.81
42003;BME280;27693;50.506;30.832;2023-01-15T06:07:27;100302.03;;;-1.08;97.49
42003;BME280;27693;50.506;30.832;2023-01-15T06:08:30;100307.09;;;-1.09;97.37
42003;BME280;27693;50.506;30.832;2023-01-15T06:09:32;100308.86;;;-1.07;97.39
42003;BME280;27693;50.506;30.832;2023-01-15T06:10:34;100304.65;;;-1.02;97.23
42003;BME280;27693;50.506;30.832;2023-01-15T06:11:37;100297.10;;;-0.91;97.13
42003;BME280;27693;50.506;30.832;2023-01-15T06:12:39;100305.66;;;-0.86;96.95
42003;BME280;27693;50.506;30.832;2023-01-15T06:13:41;100310.81;;;-0.83;96.93
42003;BME280;27693;50.506;30.832;2023-01-15T06:14:44;100306.50;;;-0.87;96.68
42003;BME280;27693;50.506;30.832;2023-01-15T06:15:46;100300.51;;;-0.89;97.05
42003;BME280;27693;50.506;30.832;2023-01-15T06:16:48;100302.28;;;-0.82;97.33
42003;BME280;27693;50.506;30.832;2023-01-15T06:17:50;100295.55;;;-0.75;97.52
42003;BME280;27693;50.506;30.832;2023-01-15T06:18:53;100306.71;;;-0.67;97.49
42003;BME280;27693;50.506;30.832;2023-01-15T06:19:55;100305.05;;;-0.63;97.48
42003;BME280;27693;50.506;30.832;2023-01-15T06:21:03;100309.31;;;-0.62;96.89
42003;BME280;27693;50.506;30.832;2023-01-15T06:22:05;100314.28;;;-0.74;96.13
42003;BME280;27693;50.506;30.832;2023-01-15T06:23:10;100310.94;;;-0.70;96.02
42003;BME280;27693;50.506;30.832;2023-01-15T06:24:13;100317.66;;;-0.78;95.78
42003;BME280;27693;50.506;30.832;2023-01-15T06:25:18;100306.43;;;-0.94;95.54
42003;BME280;27693;50.506;30.832;2023-01-15T06:26:21;100315.83;;;-0.90;95.98
42003;BME280;27693;50.506;30.832;2023-01-15T06:27:23;100297.99;;;-0.87;96.20
42003;BME280;27693;50.506;30.832;2023-01-15T06:28:26;100308.17;;;-0.89;96.20
42003;BME280;27693;50.506;30.832;2023-01-15T06:29:28;100308.17;;;-0.89;96.30
42003;BME280;27693;50.506;30.832;2023-01-15T06:30:31;100300.59;;;-0.83;96.34
42003;BME280;27693;50.506;30.832;2023-01-15T06:31:35;100310.88;;;-0.76;96.43
42003;BME280;27693;50.506;30.832;2023-01-15T06:32:37;100305.78;;;-0.73;96.26
42003;BME280;27693;50.506;30.832;2023-01-15T06:33:39;100307.45;;;-0.75;96.29
42003;BME280;27693;50.506;30.832;2023-01-15T06:34:42;100300.60;;;-0.81;96.11
42003;BME280;27693;50.506;30.832;2023-01-15T06:35:46;100300.61;;;-0.79;96.08
42003;BME280;27693;50.506;30.832;2023-01-15T06:36:48;100304.94;;;-0.72;96.04
42003;BME280;27693;50.506;30.832;2023-01-15T06:37:51;100309.17;;;-0.74;95.99
42003;BME280;27693;50.506;30.832;2023-01-15T06:38:53;100304.00;;;-0.81;95.64
42003;BME280;27693;50.506;30.832;2023-01-15T06:39:56;100301.39;;;-0.85;95.90
42003;BME280;27693;50.506;30.832;2023-01-15T06:41:00;100303.98;;;-0.84;96.05
42003;BME280;27693;50.506;30.832;2023-01-15T06:42:03;100297.16;;;-0.85;96.05
42003;BME280;27693;50.506;30.832;2023-01-15T06:43:24;100301.50;;;-0.76;96.34
42003;BME280;27693;50.506;30.832;2023-01-15T06:44:45;100300.60;;;-0.81;96.23
42003;BME280;27693;50.506;30.832;2023-01-15T06:46:07;100295.50;;;-0.79;96.19
42003;BME280;27693;50.506;30.832;2023-01-15T06:47:31;100304.00;;;-0.81;96.12
42003;BME280;27693;50.506;30.832;2023-01-15T06:48:40;100288.87;;;-0.62;96.20
42003;BME280;27693;50.506;30.832;2023-01-15T06:49:43;100293.84;;;-0.74;96.02
42003;BME280;27693;50.506;30.832;2023-01-15T06:50:46;100289.66;;;-0.69;96.24
42003;BME280;27693;50.506;30.832;2023-01-15T06:51:48;100295.55;;;-0.73;95.95
42003;BME280;27693;50.506;30.832;2023-01-15T06:52:50;100294.72;;;-0.74;95.96
42003;BME280;27693;50.506;30.832;2023-01-15T06:53:52;100297.28;;;-0.72;95.98
42003;BME280;27693;50.506;30.832;2023-01-15T06:54:54;100308.39;;;-0.67;96.04
42003;BME280;27693;50.506;30.832;2023-01-15T06:55:57;100298.16;;;-0.69;95.90
42003;BME280;27693;50.506;30.832;2023-01-15T06:56:59;100299.01;;;-0.68;95.67
42003;BME280;27693;50.506;30.832;2023-01-15T06:58:02;100297.38;;;-0.63;95.72
42003;BME280;27693;50.506;30.832;2023-01-15T06:59:04;100299.11;;;-0.59;95.85
42003;BME280;27693;50.506;30.832;2023-01-15T07:00:10;100293.21;;;-0.50;95.89
42003;BME280;27693;50.506;30.832;2023-01-15T07:01:14;100294.13;;;-0.45;95.79
42003;BME280;27693;50.506;30.832;2023-01-15T07:02:16;100288.19;;;-0.42;95.60
42003;BME280;27693;50.506;30.832;2023-01-15T07:03:19;100288.19;;;-0.39;95.29
42003;BME280;27693;50.506;30.832;2023-01-15T07:04:21;100289.02;;;-0.43;95.08
42003;BME280;27693;50.506;30.832;2023-01-15T07:05:23;100291.53;;;-0.46;94.39
42003;BME280;27693;50.506;30.832;2023-01-15T07:06:26;100291.53;;;-0.46;94.39
42003;BME280;27693;50.506;30.832;2023-01-15T07:07:28;100291.38;;;-0.65;94.51
42003;BME280;27693;50.506;30.832;2023-01-15T07:08:31;100293.11;;;-0.62;94.82
42003;BME280;27693;50.506;30.832;2023-01-15T07:09:34;100286.32;;;-0.60;94.84
42003;BME280;27693;50.506;30.832;2023-01-15T07:10:36;100288.93;;;-0.53;95.09
42003;BME280;27693;50.506;30.832;2023-01-15T07:11:38;100293.99;;;-0.59;94.66
42003;BME280;27693;50.506;30.832;2023-01-15T07:12:52;100286.33;;;-0.57;94.72
42003;BME280;27693;50.506;30.832;2023-01-15T07:13:54;100286.37;;;-0.54;94.89
42003;BME280;27693;50.506;30.832;2023-01-15T07:14:58;100288.09;;;-0.52;94.95
42003;BME280;27693;50.506;30.832;2023-01-15T07:16:01;100285.49;;;-0.55;94.83
42003;BME280;27693;50.506;30.832;2023-01-15T07:17:04;100287.15;;;-0.63;94.81
42003;BME280;27693;50.506;30.832;2023-01-15T07:18:06;100287.11;;;-0.66;94.91
42003;BME280;27693;50.506;30.832;2023-01-15T07:19:08;100288.05;;;-0.56;95.20
42003;BME280;27693;50.506;30.832;2023-01-15T07:20:11;100288.05;;;-0.55;94.96
42003;BME280;27693;50.506;30.832;2023-01-15T07:21:13;100288.00;;;-0.61;94.64
42003;BME280;27693;50.506;30.832;2023-01-15T07:22:15;100284.70;;;-0.51;94.75
42003;BME280;27693;50.506;30.832;2023-01-15T07:23:17;100285.48;;;-0.56;94.72
42003;BME280;27693;50.506;30.832;2023-01-15T07:24:22;100283.86;;;-0.50;94.64
42003;BME280;27693;50.506;30.832;2023-01-15T07:25:25;100290.73;;;-0.42;94.66
42003;BME280;27693;50.506;30.832;2023-01-15T07:26:28;100292.38;;;-0.47;94.52
42003;BME280;27693;50.506;30.832;2023-01-15T07:27:30;100285.53;;;-0.52;94.54
42003;BME280;27693;50.506;30.832;2023-01-15T07:28:32;100288.14;;;-0.45;94.65
42003;BME280;27693;50.506;30.832;2023-01-15T07:29:35;100300.14;;;-0.37;94.92
42003;BME280;27693;50.506;30.832;2023-01-15T07:30:37;100295.86;;;-0.39;94.37
42003;BME280;27693;50.506;30.832;2023-01-15T07:31:39;100295.81;;;-0.45;94.31
42003;BME280;27693;50.506;30.832;2023-01-15T07:32:42;100294.05;;;-0.53;94.31
42003;BME280;27693;50.506;30.832;2023-01-15T07:33:44;100292.37;;;-0.51;94.46
42003;BME280;27693;50.506;30.832;2023-01-15T07:34:46;100283.87;;;-0.46;94.52
42003;BME280;27693;50.506;30.832;2023-01-15T07:35:48;100287.27;;;-0.47;94.48
42003;BME280;27693;50.506;30.832;2023-01-15T07:36:54;100291.48;;;-0.54;94.51
42003;BME280;27693;50.506;30.832;2023-01-15T07:37:56;100290.65;;;-0.52;94.60
42003;BME280;27693;50.506;30.832;2023-01-15T07:38:59;100292.41;;;-0.44;94.58
42003;BME280;27693;50.506;30.832;2023-01-15T07:40:03;100295.81;;;-0.45;94.40
42003;BME280;27693;50.506;30.832;2023-01-15T07:41:06;100294.09;;;-0.46;94.34
42003;BME280;27693;50.506;30.832;2023-01-15T07:42:27;100292.37;;;-0.51;94.38
42003;BME280;27693;50.506;30.832;2023-01-15T07:43:47;100294.13;;;-0.43;94.32
42003;BME280;27693;50.506;30.832;2023-01-15T07:45:09;100289.02;;;-0.43;94.09
42003;BME280;27693;50.506;30.832;2023-01-15T07:46:30;100290.65;;;-0.52;94.04
42003;BME280;27693;50.506;30.832;2023-01-15T07:47:53;100294.05;;;-0.53;94.35
42003;BME280;27693;50.506;30.832;2023-01-15T07:49:13;100291.58;;;-0.45;94.20
42003;BME280;27693;50.506;30.832;2023-01-15T07:50:35;100290.69;;;-0.49;94.27
42003;BME280;27693;50.506;30.832;2023-01-15T07:51:37;100285.63;;;-0.42;94.43
42003;BME280;27693;50.506;30.832;2023-01-15T07:52:40;100288.14;;;-0.44;94.22
42003;BME280;27693;50.506;30.832;2023-01-15T07:53:42;100290.75;;;-0.39;94.22
42003;BME280;27693;50.506;30.832;2023-01-15T07:54:45;100290.70;;;-0.45;93.79
42003;BME280;27693;50.506;30.832;2023-01-15T07:55:48;100290.83;;;-0.30;94.12
42003;BME280;27693;50.506;30.832;2023-01-15T07:56:52;100292.55;;;-0.29;93.84
42003;BME280;27693;50.506;30.832;2023-01-15T07:57:55;100286.52;;;-0.34;93.68
42003;BME280;27693;50.506;30.832;2023-01-15T07:58:57;100286.52;;;-0.34;93.68
42003;BME280;27693;50.506;30.832;2023-01-15T07:59:59;100293.39;;;-0.30;93.86
42003;BME280;27693;50.506;30.832;2023-01-15T08:01:02;100296.75;;;-0.34;93.61
42003;BME280;27693;50.506;30.832;2023-01-15T08:02:05;100303.70;;;-0.21;93.76
42003;BME280;27693;50.506;30.832;2023-01-15T08:03:08;100296.91;;;-0.14;93.62
42003;BME280;27693;50.506;30.832;2023-01-15T08:04:11;100301.15;;;-0.18;93.17
42003;BME280;27693;50.506;30.832;2023-01-15T08:05:14;100299.43;;;-0.17;92.99
42003;BME280;27693;50.506;30.832;2023-01-15T08:06:17;100293.52;;;-0.13;92.92
42003;BME280;27693;50.506;30.832;2023-01-15T08:07:20;100306.22;;;-0.22;92.73
42003;BME280;27693;50.506;30.832;2023-01-15T08:08:22;100300.19;;;-0.30;92.75
42003;BME280;27693;50.506;30.832;2023-01-15T08:09:25;100296.87;;;-0.22;93.17
42003;BME280;27693;50.506;30.832;2023-01-15T08:10:27;100297.70;;;-0.23;93.08
42003;BME280;27693;50.506;30.832;2023-01-15T08:11:31;100291.76;;;-0.17;93.30
42003;BME280;27693;50.506;30.832;2023-01-15T08:12:52;100292.59;;;-0.23;93.29
42003;BME280;27693;50.506;30.832;2023-01-15T08:14:13;100290.84;;;-0.27;93.32
42003;BME280;27693;50.506;30.832;2023-01-15T08:15:38;100292.59;;;-0.20;93.50
42003;BME280;27693;50.506;30.832;2023-01-15T08:16:41;100290.03;;;-0.21;93.40
42003;BME280;27693;50.506;30.832;2023-01-15T08:17:45;100294.31;;;-0.20;93.25
42003;BME280;27693;50.506;30.832;2023-01-15T08:18:49;100290.08;;;-0.15;93.32
42003;BME280;27693;50.506;30.832;2023-01-15T08:19:51;100295.19;;;-0.17;93.39
42003;BME280;27693;50.506;30.832;2023-01-15T08:20:53;100284.97;;;-0.13;93.42
42003;BME280;27693;50.506;30.832;2023-01-15T08:21:56;100288.44;;;-0.07;93.55
42003;BME280;27693;50.506;30.832;2023-01-15T08:23:00;100289.27;;;-0.09;93.57
42003;BME280;27693;50.506;30.832;2023-01-15T08:24:03;100292.63;;;-0.17;93.38
42003;BME280;27693;50.506;30.832;2023-01-15T08:25:08;100289.15;;;-0.28;93.41
42003;BME280;27693;50.506;30.832;2023-01-15T08:26:11;100295.98;;;-0.24;93.66
42003;BME280;27693;50.506;30.832;2023-01-15T08:27:13;100291.76;;;-0.17;93.51
42003;BME280;27693;50.506;30.832;2023-01-15T08:28:15;100287.52;;;-0.17;93.40
42003;BME280;27693;50.506;30.832;2023-01-15T08:29:18;100294.31;;;-0.19;93.56
42003;BME280;27693;50.506;30.832;2023-01-15T08:30:23;100293.47;;;-0.21;93.46
42003;BME280;27693;50.506;30.832;2023-01-15T08:31:27;100292.63;;;-0.18;93.41
42003;BME280;27693;50.506;30.832;2023-01-15T08:32:29;100295.19;;;-0.18;93.34
42003;BME280;27693;50.506;30.832;2023-01-15T08:33:31;100296.06;;;-0.14;93.32
42003;BME280;27693;50.506;30.832;2023-01-15T08:34:34;100294.31;;;-0.19;93.35
42003;BME280;27693;50.506;30.832;2023-01-15T08:35:36;100294.31;;;-0.19;93.35
42003;BME280;27693;50.506;30.832;2023-01-15T08:36:39;100291.00;;;-0.05;93.33
42003;BME280;27693;50.506;30.832;2023-01-15T08:37:42;100290.16;;;-0.06;93.08
42003;BME280;27693;50.506;30.832;2023-01-15T08:38:50;100296.11;;;-0.08;92.94
42003;BME280;27693;50.506;30.832;2023-01-15T08:39:55;100295.16;;;-0.20;92.98
42003;BME280;27693;50.506;30.832;2023-01-15T08:40:59;100296.87;;;-0.22;93.07
42003;BME280;27693;50.506;30.832;2023-01-15T08:42:01;100287.48;;;-0.23;93.13
42003;BME280;27693;50.506;30.832;2023-01-15T08:43:06;100284.92;;;-0.24;93.13
42003;BME280;27693;50.506;30.832;2023-01-15T08:44:12;100288.23;;;-0.33;93.26
42003;BME280;27693;50.506;30.832;2023-01-15T08:45:16;100289.08;;;-0.34;93.39
42003;BME280;27693;50.506;30.832;2023-01-15T08:46:22;100284.84;;;-0.34;93.55
42003;BME280;27693;50.506;30.832;2023-01-15T08:47:27;100281.48;;;-0.28;93.70
42003;BME280;27693;50.506;30.832;2023-01-15T08:48:30;100282.41;;;-0.13;93.96
42003;BME280;27693;50.506;30.832;2023-01-15T08:49:33;100281.60;;;-0.09;93.55
42003;BME280;27693;50.506;30.832;2023-01-15T08:50:37;100287.52;;;-0.17;93.29
42003;BME280;27693;50.506;30.832;2023-01-15T08:51:40;100281.56;;;-0.14;93.32
42003;BME280;27693;50.506;30.832;2023-01-15T08:52:43;100279.05;;;-0.09;93.29
42003;BME280;27693;50.506;30.832;2023-01-15T08:53:45;100273.93;;;-0.06;93.09
42003;BME280;27693;50.506;30.832;2023-01-15T08:54:48;100265.42;;;-0.08;92.79
42003;BME280;27693;50.506;30.832;2023-01-15T08:55:52;100273.05;;;-0.10;92.69
42003;BME280;27693;50.506;30.832;2023-01-15T08:56:54;100269.69;;;-0.07;92.52
42003;BME280;27693;50.506;30.832;2023-01-15T08:57:56;100272.14;;;-0.21;92.33
42003;BME280;27693;50.506;30.832;2023-01-15T08:59:04;100273.02;;;-0.21;92.79
42003;BME280;27693;50.506;30.832;2023-01-15T09:00:09;100271.37;;;-0.11;92.76
42003;BME280;27693;50.506;30.832;2023-01-15T09:01:12;100264.58;;;-0.03;92.74
42003;BME280;27693;50.506;30.832;2023-01-15T09:02:18;100261.21;;;0.03;92.74
42003;BME280;27693;50.506;30.832;2023-01-15T09:03:21;100262.89;;;0.01;92.50
42003;BME280;27693;50.506;30.832;2023-01-15T09:04:25;100264.55;;;-0.09;92.40
42003;BME280;27693;50.506;30.832;2023-01-15T09:05:31;100266.19;;;-0.17;92.47
42003;BME280;27693;50.506;30.832;2023-01-15T09:06:35;100261.03;;;-0.25;92.37
42003;BME280;27693;50.506;30.832;2023-01-15T09:07:37;100262.78;;;-0.16;92.77
42003;BME280;27693;50.506;30.832;2023-01-15T09:08:40;100261.14;;;-0.06;92.86
42003;BME280;27693;50.506;30.832;2023-01-15T09:09:42;100259.49;;;-0.01;92.69
42003;BME280;27693;50.506;30.832;2023-01-15T09:10:44;100262.09;;;0.05;92.63
42003;BME280;27693;50.506;30.832;2023-01-15T09:11:47;100256.16;;;0.15;92.76
42003;BME280;27693;50.506;30.832;2023-01-15T09:12:49;100253.60;;;0.15;92.15
42003;BME280;27693;50.506;30.832;2023-01-15T09:13:51;100251.85;;;0.05;91.97
42003;BME280;27693;50.506;30.832;2023-01-15T09:14:56;100241.55;;;-0.04;92.11
42003;BME280;27693;50.506;30.832;2023-01-15T09:16:03;100241.55;;;-0.04;92.11
42003;BME280;27693;50.506;30.832;2023-01-15T09:17:06;100256.97;;;0.05;92.58
42003;BME280;27693;50.506;30.832;2023-01-15T09:18:10;100248.42;;;0.02;92.35
42003;BME280;27693;50.506;30.832;2023-01-15T09:19:14;100239.88;;;-0.02;92.40
42003;BME280;27693;50.506;30.832;2023-01-15T09:20:17;100245.86;;;0.03;92.55
42003;BME280;27693;50.506;30.832;2023-01-15T09:21:19;100246.70;;;0.01;92.46
42003;BME280;27693;50.506;30.832;2023-01-15T09:22:22;100248.39;;;-0.03;92.47
42003;BME280;27693;50.506;30.832;2023-01-15T09:23:25;100250.10;;;-0.02;92.40
42003;BME280;27693;50.506;30.832;2023-01-15T09:24:28;100244.95;;;-0.05;92.37
42003;BME280;27693;50.506;30.832;2023-01-15T09:25:30;100247.61;;;0.10;92.69
42003;BME280;27693;50.506;30.832;2023-01-15T09:27:45;100232.28;;;0.15;92.42
42003;BME280;27693;50.506;30.832;2023-01-15T09:28:50;100233.87;;;-0.04;92.06
42003;BME280;27693;50.506;30.832;2023-01-15T09:29:52;100232.94;;;-0.19;92.37
42003;BME280;27693;50.506;30.832;2023-01-15T09:30:55;100240.61;;;-0.19;92.53
42003;BME280;27693;50.506;30.832;2023-01-15T09:32:07;100238.05;;;-0.19;92.81
42003;BME280;27693;50.506;30.832;2023-01-15T09:33:11;100238.09;;;-0.15;93.10
42003;BME280;27693;50.506;30.832;2023-01-15T09:34:14;100232.94;;;-0.19;92.81
42003;BME280;27693;50.506;30.832;2023-01-15T09:35:16;100227.89;;;-0.09;93.17
42003;BME280;27693;50.506;30.832;2023-01-15T09:37:34;100222.84;;;0.03;92.85
42003;BME280;27693;50.506;30.832;2023-01-15T09:38:36;100226.17;;;-0.10;92.87
42003;BME280;27693;50.506;30.832;2023-01-15T09:39:39;100214.29;;;-0.02;92.92
42003;BME280;27693;50.506;30.832;2023-01-15T09:40:47;100215.91;;;-0.13;92.73
42003;BME280;27693;50.506;30.832;2023-01-15T09:44:50;100211.64;;;-0.19;93.02
42003;BME280;27693;50.506;30.832;2023-01-15T09:46:10;100209.08;;;-0.21;93.28
42003;BME280;27693;50.506;30.832;2023-01-15T09:47:19;100213.28;;;-0.26;93.53
42003;BME280;27693;50.506;30.832;2023-01-15T09:50:10;100216.72;;;-0.22;94.12
42003;BME280;27693;50.506;30.832;2023-01-15T15:48:30;99963.32;;;-0.92;97.52
42003;BME280;27693;50.506;30.832;2023-01-15T15:49:49;99964.19;;;-0.87;97.52
42003;BME280;27693;50.506;30.832;2023-01-15T15:50:53;99964.22;;;-0.81;97.35
42003;BME280;27693;50.506;30.832;2023-01-15T15:51:55;99963.40;;;-0.75;97.42
42003;BME280;27693;50.506;30.832;2023-01-15T15:53:02;99957.45;;;-0.74;97.36
42003;BME280;27693;50.506;30.832;2023-01-15T15:54:21;99964.27;;;-0.71;97.05
42003;BME280;27693;50.506;30.832;2023-01-15T15:55:23;99961.69;;;-0.74;96.89
42003;BME280;27693;50.506;30.832;2023-01-15T15:56:28;99960.00;;;-0.72;96.86
42003;BME280;27693;50.506;30.832;2023-01-15T15:57:34;99962.58;;;-0.66;97.08
42003;BME280;27693;50.506;30.832;2023-01-15T15:58:37;99957.47;;;-0.68;96.78
42003;BME280;27693;50.506;30.832;2023-01-15T15:59:49;99962.58;;;-0.65;96.90
42003;BME280;27693;50.506;30.832;2023-01-15T16:00:53;99955.78;;;-0.64;96.76
42003;BME280;27693;50.506;30.832;2023-01-15T16:02:05;99957.47;;;-0.66;96.57
42003;BME280;27693;50.506;30.832;2023-01-15T16:03:15;99953.23;;;-0.64;96.52
42003;BME280;27693;50.506;30.832;2023-01-15T16:04:14;99955.78;;;-0.64;96.61
42003;BME280;27693;50.506;30.832;2023-01-15T16:05:26;99948.13;;;-0.55;96.66
42003;BME280;27693;50.506;30.832;2023-01-15T16:06:30;99957.50;;;-0.54;96.40
42003;BME280;27693;50.506;30.832;2023-01-15T16:07:33;99951.57;;;-0.50;96.49
42003;BME280;27693;50.506;30.832;2023-01-15T16:08:37;99949.85;;;-0.47;96.42
42003;BME280;27693;50.506;30.832;2023-01-15T16:09:46;99951.55;;;-0.56;95.97
42003;BME280;27693;50.506;30.832;2023-01-15T16:10:59;99951.55;;;-0.56;95.95
42003;BME280;27693;50.506;30.832;2023-01-15T16:12:03;99950.70;;;-0.52;95.96
42003;BME280;27693;50.506;30.832;2023-01-15T16:13:11;99949.02;;;-0.48;96.27
42003;BME280;27693;50.506;30.832;2023-01-15T16:47:16;99948.00;;;-0.92;98.43
42003;BME280;27693;50.506;30.832;2023-01-15T16:48:27;99933.52;;;-0.91;98.45
42003;BME280;27693;50.506;30.832;2023-01-15T16:49:33;99930.09;;;-0.95;98.47
42003;BME280;27693;50.506;30.832;2023-01-15T16:50:38;99939.41;;;-1.06;98.23
42003;BME280;27693;50.506;30.832;2023-01-15T16:51:43;99941.99;;;-1.02;98.35
42003;BME280;27693;50.506;30.832;2023-01-15T16:52:52;99932.64;;;-0.95;98.73
42003;BME280;27693;50.506;30.832;2023-01-15T16:53:56;99931.83;;;-0.91;98.55
42003;BME280;27693;50.506;30.832;2023-01-15T16:54:59;99935.25;;;-0.86;98.78
42003;BME280;27693;50.506;30.832;2023-01-15T16:56:04;99933.56;;;-0.81;98.59
42003;BME280;27693;50.506;30.832;2023-01-15T16:57:26;99927.63;;;-0.76;98.53
42003;BME280;27693;50.506;30.832;2023-01-15T16:58:34;99930.17;;;-0.83;98.18
42003;BME280;27693;50.506;30.832;2023-01-15T16:59:56;99927.59;;;-0.84;98.08
42003;BME280;27693;50.506;30.832;2023-01-15T17:01:00;99927.59;;;-0.86;98.05
42003;BME280;27693;50.506;30.832;2023-01-15T17:03:19;99932.72;;;-0.83;98.15
42003;BME280;27693;50.506;30.832;2023-01-15T17:04:36;99929.30;;;-0.85;97.99
42003;BME280;27693;50.506;30.832;2023-01-15T17:05:37;99916.53;;;-0.85;98.07
42003;BME280;27693;50.506;30.832;2023-01-15T17:06:39;99919.05;;;-0.88;97.83
42003;BME280;27693;50.506;30.832;2023-01-15T17:07:45;99919.08;;;-0.85;97.91
42003;BME280;27693;50.506;30.832;2023-01-15T17:08:48;99921.62;;;-0.82;97.95
42003;BME280;27693;50.506;30.832;2023-01-15T17:09:54;99923.34;;;-0.82;97.88
42003;BME280;27693;50.506;30.832;2023-01-15T17:11:00;99924.19;;;-0.85;97.68
42003;BME280;27693;50.506;30.832;2023-01-15T17:12:14;99917.39;;;-0.79;97.92
42003;BME280;27693;50.506;30.832;2023-01-15T17:13:17;99920.83;;;-0.71;97.89
42003;BME280;27693;50.506;30.832;2023-01-15T17:14:25;99922.52;;;-0.76;97.72
42003;BME280;27693;50.506;30.832;2023-01-15T17:15:35;99914.02;;;-0.72;97.80
42003;BME280;27693;50.506;30.832;2023-01-15T17:16:38;99915.71;;;-0.68;97.61
42003;BME280;27693;50.506;30.832;2023-01-15T17:17:42;99905.48;;;-0.74;97.43
42003;BME280;27693;50.506;30.832;2023-01-15T17:18:47;99914.02;;;-0.72;97.41
42003;BME280;27693;50.506;30.832;2023-01-15T17:19:51;99910.59;;;-0.77;97.10
42003;BME280;27693;50.506;30.832;2023-01-15T17:20:58;99910.59;;;-0.74;97.03
42003;BME280;27693;50.506;30.832;2023-01-15T17:22:01;99906.33;;;-0.78;96.72
42003;BME280;27693;50.506;30.832;2023-01-15T17:23:07;99913.98;;;-0.75;96.81
42003;BME280;27693;50.506;30.832;2023-01-15T17:24:11;99910.59;;;-0.76;96.87
42003;BME280;27693;50.506;30.832;2023-01-15T17:25:26;99914.01;;;-0.71;97.01
42003;BME280;27693;50.506;30.832;2023-01-15T17:26:29;99905.50;;;-0.71;96.99
42003;BME280;27693;50.506;30.832;2023-01-15T17:27:31;99912.30;;;-0.73;96.83
42003;BME280;27693;50.506;30.832;2023-01-15T17:28:34;99908.90;;;-0.72;97.06
42003;BME280;27693;50.506;30.832;2023-01-15T17:29:37;99911.45;;;-0.74;96.69
42003;BME280;27693;50.506;30.832;2023-01-15T17:30:40;99916.56;;;-0.72;96.82
42003;BME280;27693;50.506;30.832;2023-01-15T17:31:42;99912.30;;;-0.73;96.55
42003;BME280;27693;50.506;30.832;2023-01-15T17:32:47;99904.63;;;-0.72;96.74
42003;BME280;27693;50.506;30.832;2023-01-15T17:33:50;99918.31;;;-0.62;96.97
42003;BME280;27693;50.506;30.832;2023-01-15T17:34:52;99903.81;;;-0.69;96.56
42003;BME280;27693;50.506;30.832;2023-01-15T17:35:54;99912.31;;;-0.67;96.64
42003;BME280;27693;50.506;30.832;2023-01-15T17:36:59;99905.49;;;-0.68;96.72
42003;BME280;27693;50.506;30.832;2023-01-15T17:38:02;99910.59;;;-0.74;96.35
42003;BME280;27693;50.506;30.832;2023-01-15T17:39:05;99904.64;;;-0.75;96.49
42003;BME280;27693;50.506;30.832;2023-01-15T17:40:11;99910.60;;;-0.68;96.86
42003;BME280;27693;50.506;30.832;2023-01-15T17:41:15;99901.27;;;-0.63;97.01
42003;BME280;27693;50.506;30.832;2023-01-15T17:42:19;99898.70;;;-0.66;96.59
42003;BME280;27693;50.506;30.832;2023-01-15T17:43:22;99900.42;;;-0.59;96.74
42003;BME280;27693;50.506;30.832;2023-01-15T17:44:25;99903.83;;;-0.54;96.70
42003;BME280;27693;50.506;30.832;2023-01-15T17:45:30;99892.75;;;-0.59;96.37
42003;BME280;27693;50.506;30.832;2023-01-15T17:46:32;99890.22;;;-0.56;96.60
42003;BME280;27693;50.506;30.832;2023-01-15T17:47:34;99894.50;;;-0.49;96.70
42003;BME280;27693;50.506;30.832;2023-01-15T17:48:37;99885.95;;;-0.49;96.38
42003;BME280;27693;50.506;30.832;2023-01-15T17:49:44;99886.80;;;-0.58;96.06
42003;BME280;27693;50.506;30.832;2023-01-15T17:50:47;99890.22;;;-0.56;96.14
42003;BME280;27693;50.506;30.832;2023-01-15T17:51:49;99885.95;;;-0.55;96.15
42003;BME280;27693;50.506;30.832;2023-01-15T17:52:51;99881.67;;;-0.55;95.88
42003;BME280;27693;50.506;30.832;2023-01-15T17:53:55;99884.26;;;-0.53;95.95
42003;BME280;27693;50.506;30.832;2023-01-15T17:54:58;99882.55;;;-0.54;96.14
42003;BME280;27693;50.506;30.832;2023-01-15T17:56:20;99872.35;;;-0.45;96.22
42003;BME280;27693;50.506;30.832;2023-01-15T17:57:41;99871.50;;;-0.42;95.79
42003;BME280;27693;50.506;30.832;2023-01-15T18:53:15;99818.59;;;-0.90;98.96
42003;BME280;27693;50.506;30.832;2023-01-15T18:54:17;99820.32;;;-0.83;99.17
42003;BME280;27693;50.506;30.832;2023-01-15T22:15:11;99747.89;;;-1.06;100.00
42003;BME280;27693;50.506;30.832;2023-01-15T22:16:15;99747.91;;;-1.00;100.00